sensor_id;sensor_type;location;lat;lon;timestamp;pressure;altitude;pressure_sealevel;temperature;humidity
44453;BME280;30155;52.164;21.236;2023-02-22T00:00:30;100337.26;;;3.93;77.73
44453;BME280;30155;52.164;21.236;2023-02-22T00:05:32;100342.34;;;3.82;77.78
44453;BME280;30155;52.164;21.236;2023-02-22T00:10:24;100344.59;;;3.69;77.77
44453;BME280;30155;52.164;21.236;2023-02-22T00:15:20;100347.81;;;3.60;78.27
44453;BME280;30155;52.164;21.236;2023-02-22T00:20:18;100354.95;;;3.49;77.81
44453;BME280;30155;52.164;21.236;2023-02-22T00:25:14;100355.88;;;3.38;77.93
44453;BME280;30155;52.164;21.236;2023-02-22T00:30:33;100368.84;;;3.28;78.22
44453;BME280;30155;52.164;21.236;2023-02-22T00:35:53;100368.14;;;3.19;78.42
44453;BME280;30155;52.164;21.236;2023-02-22T00:40:53;100374.05;;;3.09;78.26
44453;BME280;30155;52.164;21.236;2023-02-22T00:45:54;100374.40;;;2.96;78.37
44453;BME280;30155;52.164;21.236;2023-02-22T00:51:16;100381.04;;;2.84;78.30
44453;BME280;30155;52.164;21.236;2023-02-22T00:56:20;100390.62;;;2.71;78.37
44453;BME280;30155;52.164;21.236;2023-02-22T01:01:39;100393.92;;;2.57;78.13
44453;BME280;30155;52.164;21.236;2023-02-22T01:06:31;100397.06;;;2.43;77.84
44453;BME280;30155;52.164;21.236;2023-02-22T01:11:32;100400.75;;;2.29;77.86
44453;BME280;30155;52.164;21.236;2023-02-22T01:16:33;100406.90;;;2.18;77.54
44453;BME280;30155;52.164;21.236;2023-02-22T01:21:25;100409.98;;;2.03;77.69
44453;BME280;30155;52.164;21.236;2023-02-22T01:26:17;100418.92;;;1.93;77.69
44453;BME280;30155;52.164;21.236;2023-02-22T01:31:10;100424.05;;;1.86;77.71
44453;BME280;30155;52.164;21.236;2023-02-22T01:36:02;100430.98;;;1.92;78.54
44453;BME280;30155;52.164;21.236;2023-02-22T01:40:55;100435.95;;;2.03;78.98
44453;BME280;30155;52.164;21.236;2023-02-22T01:45:54;100439.32;;;2.09;79.01
44453;BME280;30155;52.164;21.236;2023-02-22T01:51:01;100439.93;;;2.15;79.25
44453;BME280;30155;52.164;21.236;2023-02-22T01:55:54;100441.89;;;2.20;79.22
44453;BME280;30155;52.164;21.236;2023-02-22T02:00:47;100438.39;;;2.22;79.58
44453;BME280;30155;52.164;21.236;2023-02-22T02:05:41;100447.11;;;2.22;79.45
44453;BME280;30155;52.164;21.236;2023-02-22T02:10:33;100448.08;;;2.21;79.28
44453;BME280;30155;52.164;21.236;2023-02-22T02:15:31;100449.58;;;2.20;79.53
44453;BME280;30155;52.164;21.236;2023-02-22T02:35:54;100465.46;;;2.31;79.48
44453;BME280;30155;52.164;21.236;2023-02-22T02:40:59;100469.86;;;2.37;79.66
44453;BME280;30155;52.164;21.236;2023-02-22T02:46:18;100471.67;;;2.43;79.37
44453;BME280;30155;52.164;21.236;2023-02-22T02:51:14;100474.17;;;2.49;79.35
44453;BME280;30155;52.164;21.236;2023-02-22T02:56:07;100483.61;;;2.54;79.62
44453;BME280;30155;52.164;21.236;2023-02-22T03:01:01;100484.15;;;2.58;79.78
44453;BME280;30155;52.164;21.236;2023-02-22T03:06:12;100483.90;;;2.60;79.56
44453;BME280;30155;52.164;21.236;2023-02-22T03:11:11;100488.45;;;2.62;79.49
44453;BME280;30155;52.164;21.236;2023-02-22T03:26:46;100506.92;;;2.62;79.90
44453;BME280;30155;52.164;21.236;2023-02-22T03:31:46;100506.80;;;2.59;79.98
44453;BME280;30155;52.164;21.236;2023-02-22T03:36:51;100513.09;;;2.59;80.06
44453;BME280;30155;52.164;21.236;2023-02-22T03:41:48;100515.08;;;2.61;80.22
44453;BME280;30155;52.164;21.236;2023-02-22T03:46:43;100522.10;;;2.60;80.19
44453;BME280;30155;52.164;21.236;2023-02-22T03:51:36;100522.73;;;2.60;80.16
44453;BME280;30155;52.164;21.236;2023-02-22T03:56:32;100528.06;;;2.60;80.29
44453;BME280;30155;52.164;21.236;2023-02-22T04:01:26;100530.36;;;2.62;80.51
44453;BME280;30155;52.164;21.236;2023-02-22T04:12:09;100542.43;;;2.60;80.57
44453;BME280;30155;52.164;21.236;2023-02-22T04:17:15;100547.94;;;2.57;80.53
44453;BME280;30155;52.164;21.236;2023-02-22T04:22:07;100553.02;;;2.56;80.58
44453;BME280;30155;52.164;21.236;2023-02-22T04:26:59;100559.34;;;2.52;80.72
44453;BME280;30155;52.164;21.236;2023-02-22T04:31:51;100567.36;;;2.48;80.62
44453;BME280;30155;52.164;21.236;2023-02-22T04:36:43;100571.95;;;2.44;80.80
44453;BME280;30155;52.164;21.236;2023-02-22T04:41:35;100577.13;;;2.45;80.46
44453;BME280;30155;52.164;21.236;2023-02-22T04:46:27;100575.05;;;2.41;80.61
44453;BME280;30155;52.164;21.236;2023-02-22T04:51:19;100578.85;;;2.38;80.26
44453;BME280;30155;52.164;21.236;2023-02-22T04:56:19;100577.52;;;2.35;79.69
44453;BME280;30155;52.164;21.236;2023-02-22T05:01:11;100586.13;;;2.33;79.75
44453;BME280;30155;52.164;21.236;2023-02-22T05:06:04;100590.48;;;2.27;79.18
44453;BME280;30155;52.164;21.236;2023-02-22T05:10:55;100595.39;;;2.22;79.43
44453;BME280;30155;52.164;21.236;2023-02-22T05:15:47;100600.04;;;2.19;78.99
44453;BME280;30155;52.164;21.236;2023-02-22T05:20:38;100603.25;;;2.15;79.33
44453;BME280;30155;52.164;21.236;2023-02-22T05:25:30;100602.82;;;2.10;79.31
44453;BME280;30155;52.164;21.236;2023-02-22T05:30:26;100613.59;;;2.06;79.31
44453;BME280;30155;52.164;21.236;2023-02-22T05:35:20;100619.52;;;2.02;79.13
44453;BME280;30155;52.164;21.236;2023-02-22T05:40:12;100623.94;;;2.01;79.78
44453;BME280;30155;52.164;21.236;2023-02-22T05:45:05;100630.47;;;2.02;79.66
44453;BME280;30155;52.164;21.236;2023-02-22T05:49:56;100632.84;;;2.01;79.61
44453;BME280;30155;52.164;21.236;2023-02-22T05:54:48;100636.83;;;2.03;79.69
44453;BME280;30155;52.164;21.236;2023-02-22T05:59:39;100642.52;;;2.04;80.10
44453;BME280;30155;52.164;21.236;2023-02-22T06:04:31;100649.50;;;2.06;79.70
44453;BME280;30155;52.164;21.236;2023-02-22T06:09:22;100651.98;;;2.05;78.98
44453;BME280;30155;52.164;21.236;2023-02-22T06:14:14;100659.36;;;2.05;78.75
44453;BME280;30155;52.164;21.236;2023-02-22T06:19:05;100664.87;;;2.06;78.62
44453;BME280;30155;52.164;21.236;2023-02-22T06:23:57;100672.15;;;2.12;78.17
44453;BME280;30155;52.164;21.236;2023-02-22T06:28:48;100677.34;;;2.16;77.84
44453;BME280;30155;52.164;21.236;2023-02-22T06:33:40;100681.67;;;2.21;77.54
44453;BME280;30155;52.164;21.236;2023-02-22T06:38:31;100687.84;;;2.24;77.34
44453;BME280;30155;52.164;21.236;2023-02-22T06:43:23;100698.44;;;2.31;77.27
44453;BME280;30155;52.164;21.236;2023-02-22T06:48:15;100703.90;;;2.38;76.97
44453;BME280;30155;52.164;21.236;2023-02-22T06:53:07;100709.59;;;2.42;76.86
44453;BME280;30155;52.164;21.236;2023-02-22T06:58:00;100714.27;;;2.47;76.75
44453;BME280;30155;52.164;21.236;2023-02-22T07:02:53;100719.50;;;2.49;76.19
44453;BME280;30155;52.164;21.236;2023-02-22T07:07:46;100726.71;;;2.49;75.90
44453;BME280;30155;52.164;21.236;2023-02-22T07:12:37;100728.47;;;2.50;75.78
44453;BME280;30155;52.164;21.236;2023-02-22T07:17:29;100728.41;;;2.53;75.52
44453;BME280;30155;52.164;21.236;2023-02-22T07:22:20;100732.61;;;2.58;75.38
44453;BME280;30155;52.164;21.236;2023-02-22T07:27:12;100742.35;;;2.57;74.95
44453;BME280;30155;52.164;21.236;2023-02-22T07:32:04;100743.24;;;2.58;74.28
44453;BME280;30155;52.164;21.236;2023-02-22T07:36:56;100741.19;;;2.61;74.40
44453;BME280;30155;52.164;21.236;2023-02-22T07:41:47;100740.11;;;2.68;74.28
44453;BME280;30155;52.164;21.236;2023-02-22T07:46:47;100737.24;;;2.79;74.15
44453;BME280;30155;52.164;21.236;2023-02-22T07:51:38;100736.16;;;2.88;73.66
44453;BME280;30155;52.164;21.236;2023-02-22T07:56:30;100741.37;;;2.94;73.72
44453;BME280;30155;52.164;21.236;2023-02-22T08:01:21;100746.17;;;3.01;73.10
44453;BME280;30155;52.164;21.236;2023-02-22T08:06:14;100744.88;;;3.10;72.86
44453;BME280;30155;52.164;21.236;2023-02-22T08:11:05;100738.21;;;3.21;72.25
44453;BME280;30155;52.164;21.236;2023-02-22T08:15:58;100735.70;;;3.26;71.34
44453;BME280;30155;52.164;21.236;2023-02-22T08:20:50;100736.63;;;3.31;70.87
44453;BME280;30155;52.164;21.236;2023-02-22T08:25:43;100736.64;;;3.46;71.13
44453;BME280;30155;52.164;21.236;2023-02-22T08:30:35;100742.61;;;3.61;70.99
44453;BME280;30155;52.164;21.236;2023-02-22T08:35:31;100744.50;;;3.76;70.50
44453;BME280;30155;52.164;21.236;2023-02-22T08:40:26;100746.05;;;3.88;69.99
44453;BME280;30155;52.164;21.236;2023-02-22T08:45:18;100743.88;;;3.97;69.51
44453;BME280;30155;52.164;21.236;2023-02-22T08:50:16;100750.80;;;4.02;68.99
44453;BME280;30155;52.164;21.236;2023-02-22T08:55:08;100757.42;;;4.12;69.19
44453;BME280;30155;52.164;21.236;2023-02-22T09:00:00;100761.16;;;4.28;69.34
44453;BME280;30155;52.164;21.236;2023-02-22T09:04:52;100767.36;;;4.49;69.09
44453;BME280;30155;52.164;21.236;2023-02-22T09:09:44;100764.81;;;4.62;68.05
44453;BME280;30155;52.164;21.236;2023-02-22T09:14:36;100772.02;;;4.57;67.22
44453;BME280;30155;52.164;21.236;2023-02-22T09:19:28;100775.41;;;4.60;68.07
44453;BME280;30155;52.164;21.236;2023-02-22T09:24:19;100782.62;;;4.68;67.87
44453;BME280;30155;52.164;21.236;2023-02-22T09:29:11;100779.41;;;4.66;67.48
44453;BME280;30155;52.164;21.236;2023-02-22T09:34:04;100774.77;;;4.49;67.11
44453;BME280;30155;52.164;21.236;2023-02-22T09:39:03;100782.02;;;4.42;67.34
44453;BME280;30155;52.164;21.236;2023-02-22T09:44:17;100783.58;;;4.46;67.70
44453;BME280;30155;52.164;21.236;2023-02-22T09:54:27;100786.31;;;4.38;67.96
44453;BME280;30155;52.164;21.236;2023-02-22T09:59:27;100787.62;;;4.28;67.08
44453;BME280;30155;52.164;21.236;2023-02-22T10:09:25;100790.67;;;4.20;66.67
44453;BME280;30155;52.164;21.236;2023-02-22T10:24:57;100804.94;;;4.05;67.05
44453;BME280;30155;52.164;21.236;2023-02-22T10:30:00;100807.36;;;3.98;66.82
44453;BME280;30155;52.164;21.236;2023-02-22T10:35:19;100810.64;;;3.83;66.59
44453;BME280;30155;52.164;21.236;2023-02-22T10:40:15;100819.23;;;3.65;66.80
44453;BME280;30155;52.164;21.236;2023-02-22T10:45:23;100828.70;;;3.47;66.71
44453;BME280;30155;52.164;21.236;2023-02-22T10:50:17;100828.31;;;3.35;67.15
44453;BME280;30155;52.164;21.236;2023-02-22T10:55:15;100829.69;;;3.25;67.37
44453;BME280;30155;52.164;21.236;2023-02-22T11:00:17;100836.38;;;3.15;67.11
44453;BME280;30155;52.164;21.236;2023-02-22T11:10:30;100835.98;;;3.06;67.53
44453;BME280;30155;52.164;21.236;2023-02-22T11:20:26;100831.04;;;3.24;66.95
44453;BME280;30155;52.164;21.236;2023-02-22T11:25:22;100830.79;;;3.48;66.84
44453;BME280;30155;52.164;21.236;2023-02-22T11:30:26;100833.02;;;3.70;66.15
44453;BME280;30155;52.164;21.236;2023-02-22T11:40:21;100834.94;;;3.67;65.16
44453;BME280;30155;52.164;21.236;2023-02-22T11:45:19;100843.92;;;3.57;64.83
44453;BME280;30155;52.164;21.236;2023-02-22T11:55:23;100848.80;;;3.20;65.22
44453;BME280;30155;52.164;21.236;2023-02-22T12:05:50;100848.52;;;2.96;64.82
44453;BME280;30155;52.164;21.236;2023-02-22T12:21:15;100849.75;;;3.21;64.51
44453;BME280;30155;52.164;21.236;2023-02-22T12:26:13;100855.54;;;3.35;63.88
44453;BME280;30155;52.164;21.236;2023-02-22T12:31:13;100854.17;;;3.46;63.28
44453;BME280;30155;52.164;21.236;2023-02-22T12:36:10;100854.96;;;3.59;62.87
44453;BME280;30155;52.164;21.236;2023-02-22T12:41:24;100852.61;;;3.71;62.66
44453;BME280;30155;52.164;21.236;2023-02-22T12:46:19;100845.50;;;3.84;62.51
44453;BME280;30155;52.164;21.236;2023-02-22T12:51:20;100848.80;;;3.81;61.71
44453;BME280;30155;52.164;21.236;2023-02-22T12:56:33;100862.23;;;3.64;61.92
44453;BME280;30155;52.164;21.236;2023-02-22T13:01:32;100863.52;;;3.69;62.01
44453;BME280;30155;52.164;21.236;2023-02-22T13:11:41;100862.13;;;3.72;61.84
44453;BME280;30155;52.164;21.236;2023-02-22T13:16:59;100870.63;;;3.71;61.77
44453;BME280;30155;52.164;21.236;2023-02-22T13:21:57;100882.35;;;3.72;62.07
44453;BME280;30155;52.164;21.236;2023-02-22T13:27:06;100893.40;;;3.71;61.94
44453;BME280;30155;52.164;21.236;2023-02-22T13:52:29;100897.14;;;3.06;62.08
44453;BME280;30155;52.164;21.236;2023-02-22T13:57:39;100894.65;;;3.04;62.28
44453;BME280;30155;52.164;21.236;2023-02-22T14:03:04;100894.17;;;2.98;61.81
44453;BME280;30155;52.164;21.236;2023-02-22T14:07:58;100892.10;;;2.81;61.83
44453;BME280;30155;52.164;21.236;2023-02-22T14:12:49;100900.33;;;2.75;62.20
44453;BME280;30155;52.164;21.236;2023-02-22T14:17:58;100903.61;;;2.69;61.83
44453;BME280;30155;52.164;21.236;2023-02-22T14:22:50;100908.55;;;2.68;62.70
44453;BME280;30155;52.164;21.236;2023-02-22T14:27:43;100915.86;;;2.63;62.06
44453;BME280;30155;52.164;21.236;2023-02-22T14:32:34;100919.27;;;2.50;61.97
44453;BME280;30155;52.164;21.236;2023-02-22T14:37:34;100916.81;;;2.43;62.01
44453;BME280;30155;52.164;21.236;2023-02-22T14:42:33;100916.17;;;2.34;61.99
44453;BME280;30155;52.164;21.236;2023-02-22T14:47:31;100916.24;;;2.28;62.35
44453;BME280;30155;52.164;21.236;2023-02-22T14:52:33;100920.64;;;2.21;61.92
44453;BME280;30155;52.164;21.236;2023-02-22T14:57:58;100927.42;;;2.14;62.14
44453;BME280;30155;52.164;21.236;2023-02-22T15:02:51;100935.25;;;2.07;62.65
44453;BME280;30155;52.164;21.236;2023-02-22T15:07:55;100933.59;;;1.99;62.38
44453;BME280;30155;52.164;21.236;2023-02-22T15:17:44;100942.95;;;1.82;62.72
44453;BME280;30155;52.164;21.236;2023-02-22T15:22:36;100937.52;;;1.77;62.74
44453;BME280;30155;52.164;21.236;2023-02-22T15:27:28;100945.61;;;1.69;62.58
44453;BME280;30155;52.164;21.236;2023-02-22T15:37:21;100953.90;;;1.58;62.82
44453;BME280;30155;52.164;21.236;2023-02-22T15:42:16;100953.78;;;1.53;62.83
44453;BME280;30155;52.164;21.236;2023-02-22T15:47:16;100955.59;;;1.48;62.81
44453;BME280;30155;52.164;21.236;2023-02-22T15:52:13;100961.02;;;1.45;62.64
44453;BME280;30155;52.164;21.236;2023-02-22T15:57:13;100963.52;;;1.38;62.88
44453;BME280;30155;52.164;21.236;2023-02-22T16:02:05;100969.30;;;1.35;62.98
44453;BME280;30155;52.164;21.236;2023-02-22T16:07:03;100976.45;;;1.31;62.98
44453;BME280;30155;52.164;21.236;2023-02-22T16:22:33;100982.34;;;1.18;62.66
44453;BME280;30155;52.164;21.236;2023-02-22T16:27:25;100985.75;;;1.14;62.64
44453;BME280;30155;52.164;21.236;2023-02-22T16:32:16;100988.83;;;1.15;62.57
44453;BME280;30155;52.164;21.236;2023-02-22T16:37:19;100997.48;;;1.17;63.22
44453;BME280;30155;52.164;21.236;2023-02-22T16:42:14;100998.74;;;1.18;62.93
44453;BME280;30155;52.164;21.236;2023-02-22T16:47:10;101005.96;;;1.16;63.05
44453;BME280;30155;52.164;21.236;2023-02-22T16:52:05;101013.02;;;1.18;63.17
44453;BME280;30155;52.164;21.236;2023-02-22T16:56:57;101019.71;;;1.18;63.19
44453;BME280;30155;52.164;21.236;2023-02-22T17:01:50;101021.16;;;1.16;63.37
44453;BME280;30155;52.164;21.236;2023-02-22T17:06:41;101018.32;;;1.14;63.27
44453;BME280;30155;52.164;21.236;2023-02-22T17:11:34;101025.49;;;1.14;63.93
44453;BME280;30155;52.164;21.236;2023-02-22T17:16:26;101022.87;;;1.10;64.20
44453;BME280;30155;52.164;21.236;2023-02-22T17:21:18;101027.88;;;1.08;64.36
44453;BME280;30155;52.164;21.236;2023-02-22T17:26:10;101026.91;;;1.09;64.17
44453;BME280;30155;52.164;21.236;2023-02-22T17:31:04;101021.33;;;1.10;64.30
44453;BME280;30155;52.164;21.236;2023-02-22T17:35:57;101018.72;;;1.09;64.12
44453;BME280;30155;52.164;21.236;2023-02-22T17:40:49;101019.77;;;1.07;64.20
44453;BME280;30155;52.164;21.236;2023-02-22T17:45:41;101023.15;;;1.01;64.49
44453;BME280;30155;52.164;21.236;2023-02-22T17:50:38;101023.79;;;0.97;64.30
44453;BME280;30155;52.164;21.236;2023-02-22T17:55:30;101029.29;;;0.92;64.58
44453;BME280;30155;52.164;21.236;2023-02-22T18:00:26;101029.97;;;0.87;64.65
44453;BME280;30155;52.164;21.236;2023-02-22T18:05:23;101029.13;;;0.81;64.62
44453;BME280;30155;52.164;21.236;2023-02-22T18:10:16;101029.59;;;0.78;65.00
44453;BME280;30155;52.164;21.236;2023-02-22T18:15:10;101033.58;;;0.73;65.08
44453;BME280;30155;52.164;21.236;2023-02-22T18:20:03;101033.70;;;0.69;65.34
44453;BME280;30155;52.164;21.236;2023-02-22T18:25:01;101038.06;;;0.68;65.28
44453;BME280;30155;52.164;21.236;2023-02-22T18:29:53;101038.95;;;0.68;65.58
44453;BME280;30155;52.164;21.236;2023-02-22T18:34:45;101047.67;;;0.69;65.29
44453;BME280;30155;52.164;21.236;2023-02-22T18:39:38;101054.57;;;0.70;65.65
44453;BME280;30155;52.164;21.236;2023-02-22T18:44:32;101059.27;;;0.69;65.43
44453;BME280;30155;52.164;21.236;2023-02-22T18:49:24;101053.36;;;0.67;65.62
44453;BME280;30155;52.164;21.236;2023-02-22T18:54:15;101053.06;;;0.68;65.54
44453;BME280;30155;52.164;21.236;2023-02-22T18:59:11;101057.36;;;0.65;65.85
44453;BME280;30155;52.164;21.236;2023-02-22T19:04:05;101047.39;;;0.62;65.50
44453;BME280;30155;52.164;21.236;2023-02-22T19:09:00;101044.35;;;0.62;65.96
44453;BME280;30155;52.164;21.236;2023-02-22T19:13:55;101045.74;;;0.54;65.84
44453;BME280;30155;52.164;21.236;2023-02-22T19:18:48;101051.77;;;0.50;66.14
44453;BME280;30155;52.164;21.236;2023-02-22T19:23:41;101047.02;;;0.50;65.81
44453;BME280;30155;52.164;21.236;2023-02-22T19:28:35;101043.75;;;0.50;65.70
44453;BME280;30155;52.164;21.236;2023-02-22T19:33:27;101049.92;;;0.50;66.42
44453;BME280;30155;52.164;21.236;2023-02-22T19:38:18;101049.92;;;0.50;66.14
44453;BME280;30155;52.164;21.236;2023-02-22T19:43:10;101045.38;;;0.51;66.32
44453;BME280;30155;52.164;21.236;2023-02-22T19:48:04;101045.23;;;0.49;66.32
44453;BME280;30155;52.164;21.236;2023-02-22T19:52:55;101050.08;;;0.45;66.27
44453;BME280;30155;52.164;21.236;2023-02-22T19:57:46;101058.67;;;0.43;66.31
44453;BME280;30155;52.164;21.236;2023-02-22T20:02:40;101070.91;;;0.43;66.23
44453;BME280;30155;52.164;21.236;2023-02-22T20:07:31;101065.07;;;0.42;66.36
44453;BME280;30155;52.164;21.236;2023-02-22T20:12:23;101065.34;;;0.41;66.36
44453;BME280;30155;52.164;21.236;2023-02-22T20:17:14;101065.16;;;0.41;65.59
44453;BME280;30155;52.164;21.236;2023-02-22T20:22:06;101069.21;;;0.43;65.10
44453;BME280;30155;52.164;21.236;2023-02-22T20:26:57;101065.21;;;0.44;64.71
44453;BME280;30155;52.164;21.236;2023-02-22T20:31:49;101067.81;;;0.45;64.77
44453;BME280;30155;52.164;21.236;2023-02-22T20:36:43;101067.52;;;0.43;64.11
44453;BME280;30155;52.164;21.236;2023-02-22T20:41:35;101073.58;;;0.41;64.41
44453;BME280;30155;52.164;21.236;2023-02-22T20:46:28;101069.87;;;0.39;64.23
44453;BME280;30155;52.164;21.236;2023-02-22T20:51:21;101067.20;;;0.37;64.34
44453;BME280;30155;52.164;21.236;2023-02-22T20:56:19;101072.34;;;0.35;64.63
44453;BME280;30155;52.164;21.236;2023-02-22T21:01:12;101077.77;;;0.35;64.51
44453;BME280;30155;52.164;21.236;2023-02-22T21:06:05;101076.70;;;0.37;64.40
44453;BME280;30155;52.164;21.236;2023-02-22T21:10:57;101077.70;;;0.39;64.59
44453;BME280;30155;52.164;21.236;2023-02-22T21:15:50;101079.96;;;0.43;64.39
44453;BME280;30155;52.164;21.236;2023-02-22T21:20:42;101074.59;;;0.47;64.14
44453;BME280;30155;52.164;21.236;2023-02-22T21:25:34;101068.26;;;0.44;64.14
44453;BME280;30155;52.164;21.236;2023-02-22T21:30:26;101067.95;;;0.38;63.95
44453;BME280;30155;52.164;21.236;2023-02-22T21:35:17;101068.34;;;0.34;63.74
44453;BME280;30155;52.164;21.236;2023-02-22T21:40:11;101070.99;;;0.33;63.55
44453;BME280;30155;52.164;21.236;2023-02-22T21:45:09;101075.30;;;0.28;63.22
44453;BME280;30155;52.164;21.236;2023-02-22T21:50:03;101075.14;;;0.23;63.49
44453;BME280;30155;52.164;21.236;2023-02-22T21:54:55;101080.90;;;0.20;62.97
44453;BME280;30155;52.164;21.236;2023-02-22T21:59:47;101076.30;;;0.17;63.27
44453;BME280;30155;52.164;21.236;2023-02-22T22:04:43;101074.23;;;0.17;63.12
44453;BME280;30155;52.164;21.236;2023-02-22T22:09:36;101075.89;;;0.13;62.84
44453;BME280;30155;52.164;21.236;2023-02-22T22:14:56;101073.81;;;0.10;63.10
44453;BME280;30155;52.164;21.236;2023-02-22T22:19:48;101069.67;;;0.07;63.47
44453;BME280;30155;52.164;21.236;2023-02-22T22:24:41;101074.84;;;0.05;63.04
44453;BME280;30155;52.164;21.236;2023-02-22T22:29:35;101078.61;;;0.03;62.93
44453;BME280;30155;52.164;21.236;2023-02-22T22:34:29;101072.81;;;0.00;63.09
44453;BME280;30155;52.164;21.236;2023-02-22T22:39:21;101084.21;;;-0.03;62.77
44453;BME280;30155;52.164;21.236;2023-02-22T22:44:14;101081.98;;;-0.06;62.53
44453;BME280;30155;52.164;21.236;2023-02-22T22:49:12;101081.64;;;-0.09;62.47
44453;BME280;30155;52.164;21.236;2023-02-22T22:54:04;101081.71;;;-0.10;62.64
44453;BME280;30155;52.164;21.236;2023-02-22T22:58:57;101086.84;;;-0.12;63.07
44453;BME280;30155;52.164;21.236;2023-02-22T23:03:53;101086.39;;;-0.16;62.53
44453;BME280;30155;52.164;21.236;2023-02-22T23:08:44;101087.16;;;-0.20;62.44
44453;BME280;30155;52.164;21.236;2023-02-22T23:13:37;101083.55;;;-0.21;62.19
44453;BME280;30155;52.164;21.236;2023-02-22T23:18:29;101083.29;;;-0.22;62.32
44453;BME280;30155;52.164;21.236;2023-02-22T23:23:24;101082.10;;;-0.25;62.30
44453;BME280;30155;52.164;21.236;2023-02-22T23:28:17;101088.52;;;-0.31;62.04
44453;BME280;30155;52.164;21.236;2023-02-22T23:33:09;101084.73;;;-0.37;62.17
44453;BME280;30155;52.164;21.236;2023-02-22T23:38:00;101080.48;;;-0.39;61.92
44453;BME280;30155;52.164;21.236;2023-02-22T23:42:52;101076.96;;;-0.41;62.25
44453;BME280;30155;52.164;21.236;2023-02-22T23:47:44;101069.52;;;-0.43;62.39
44453;BME280;30155;52.164;21.236;2023-02-22T23:52:40;101065.75;;;-0.43;62.80
44453;BME280;30155;52.164;21.236;2023-02-22T23:57:33;101063.42;;;-0.45;62.62
